createdAt,value
2023-03-06T00:00:58.621Z,96602.56
2023-03-06T00:03:28.973Z,96604.25
2023-03-06T00:05:59.391Z,96608.11
2023-03-06T00:08:30.213Z,96610.92
2023-03-06T00:10:59.991Z,96607.12
2023-03-06T00:13:31.286Z,96603.55
2023-03-06T00:16:01.565Z,96604.24
2023-03-06T00:18:30.634Z,96602.73
2023-03-06T00:21:00.517Z,96602.64
2023-03-06T00:23:30.265Z,96600.80
2023-03-06T00:25:59.674Z,96595.45
2023-03-06T00:28:32.560Z,96591.73
2023-03-06T00:31:02.821Z,96588.38
2023-03-06T00:33:32.728Z,96587.21
2023-03-06T00:36:06.707Z,96582.45
2023-03-06T00:38:37.871Z,96582.55
2023-03-06T00:41:11.539Z,96583.18
2023-03-06T00:43:41.236Z,96581.31
2023-03-06T00:46:10.620Z,96588.89
2023-03-06T00:48:42.221Z,96587.55
2023-03-06T00:51:14.028Z,96583.59
2023-03-06T00:53:44.082Z,96580.50
2023-03-06T00:56:14.352Z,96578.83
2023-03-06T00:58:45.583Z,96576.74
2023-03-06T01:01:16.528Z,96578.75
2023-03-06T01:03:46.089Z,96577.59
2023-03-06T01:06:17.474Z,96576.06
2023-03-06T01:08:47.887Z,96578.72
2023-03-06T01:11:17.287Z,96577.55
2023-03-06T01:13:46.864Z,96576.73
2023-03-06T01:16:19.597Z,96574.10
2023-03-06T01:18:51.615Z,96571.97
2023-03-06T01:21:22.349Z,96572.72
2023-03-06T01:23:52.147Z,96572.01
2023-03-06T01:26:22.070Z,96573.99
2023-03-06T01:28:52.216Z,96573.52
2023-03-06T01:31:23.094Z,96572.05
2023-03-06T01:33:53.341Z,96565.88
2023-03-06T01:36:23.101Z,96566.86
2023-03-06T01:38:53.184Z,96562.31
2023-03-06T01:41:22.804Z,96560.91
2023-03-06T01:43:54.808Z,96560.84
2023-03-06T01:46:34.304Z,96565.03
2023-03-06T01:49:06.392Z,96564.42
2023-03-06T01:51:54.054Z,96563.89
2023-03-06T01:54:47.301Z,96573.15
2023-03-06T01:57:22.978Z,96572.42
2023-03-06T02:00:01.623Z,96576.56
2023-03-06T02:02:31.744Z,96578.98
2023-03-06T02:05:04.950Z,96576.88
2023-03-06T02:07:37.415Z,96578.23
2023-03-06T02:10:11.350Z,96578.85
2023-03-06T02:12:44.836Z,96581.18
2023-03-06T02:15:18.600Z,96577.09
2023-03-06T02:17:52.316Z,96577.80
2023-03-06T02:20:47.027Z,96577.41
2023-03-06T02:23:26.285Z,96574.96
2023-03-06T02:25:58.144Z,96575.93
2023-03-06T02:28:28.288Z,96576.45
2023-03-06T02:30:58.731Z,96578.00
2023-03-06T02:33:31.262Z,96580.20
2023-03-06T02:36:05.280Z,96580.27
2023-03-06T02:38:42.319Z,96583.46
2023-03-06T02:41:13.672Z,96584.77
2023-03-06T02:43:47.421Z,96584.30
2023-03-06T02:46:17.435Z,96585.81
2023-03-06T02:48:46.991Z,96589.07
2023-03-06T02:51:16.842Z,96590.59
2023-03-06T02:53:48.705Z,96588.88
2023-03-06T02:56:19.713Z,96589.42
2023-03-06T02:58:50.478Z,96591.86
2023-03-06T03:01:20.582Z,96591.22
2023-03-06T03:03:50.901Z,96595.06
2023-03-06T03:06:21.712Z,96590.59
2023-03-06T03:08:51.577Z,96591.58
2023-03-06T03:11:22.997Z,96591.57
2023-03-06T03:13:53.959Z,96587.77
2023-03-06T03:16:27.052Z,96587.94
2023-03-06T03:18:59.102Z,96583.35
2023-03-06T03:21:29.513Z,96581.59
2023-03-06T03:23:59.402Z,96580.58
2023-03-06T03:26:31.496Z,96578.06
2023-03-06T03:29:09.357Z,96577.27
2023-03-06T03:31:41.228Z,96575.98
2023-03-06T03:34:11.886Z,96576.77
2023-03-06T03:36:45.056Z,96579.62
2023-03-06T03:39:16.441Z,96575.06
2023-03-06T03:41:47.006Z,96578.70
2023-03-06T03:44:17.551Z,96579.23
2023-03-06T03:46:48.237Z,96581.83
2023-03-06T03:49:22.704Z,96581.38
2023-03-06T03:51:54.000Z,96581.67
2023-03-06T03:54:24.797Z,96581.64
2023-03-06T03:56:56.244Z,96582.81
2023-03-06T03:59:30.453Z,96579.89
2023-03-06T04:02:09.202Z,96581.41
2023-03-06T04:04:44.145Z,96583.75
2023-03-06T04:07:13.341Z,96585.36
2023-03-06T04:09:43.346Z,96586.54
2023-03-06T04:12:12.841Z,96585.15
2023-03-06T04:14:43.160Z,96585.50
2023-03-06T04:17:12.354Z,96588.59
2023-03-06T04:19:44.606Z,96589.08
2023-03-06T04:22:14.685Z,96591.41
2023-03-06T04:24:45.517Z,96588.83
2023-03-06T04:27:15.306Z,96587.81
2023-03-06T04:29:45.412Z,96587.34
2023-03-06T04:32:15.830Z,96588.25
2023-03-06T04:34:45.439Z,96585.23
2023-03-06T04:37:21.415Z,96586.02
2023-03-06T04:39:52.836Z,96585.52
2023-03-06T04:42:22.958Z,96588.91
2023-03-06T04:44:52.485Z,96592.48
2023-03-06T04:47:22.390Z,96595.81
2023-03-06T04:49:51.604Z,96597.41
2023-03-06T04:52:21.314Z,96592.56
2023-03-06T04:54:51.468Z,96592.91
2023-03-06T04:57:21.128Z,96592.10
2023-03-06T04:59:51.148Z,96595.23
2023-03-06T05:02:22.012Z,96598.10
2023-03-06T05:04:50.881Z,96601.08
2023-03-06T05:07:19.942Z,96603.41
2023-03-06T05:09:48.954Z,96604.02
2023-03-06T05:12:18.812Z,96606.04
2023-03-06T05:14:48.778Z,96608.99
2023-03-06T05:17:17.868Z,96609.86
2023-03-06T05:19:47.904Z,96613.61
2023-03-06T05:22:16.890Z,96615.84
2023-03-06T05:24:46.487Z,96617.39
2023-03-06T05:27:16.934Z,96616.92
2023-03-06T05:29:47.371Z,96617.44
2023-03-06T05:32:17.310Z,96618.50
2023-03-06T05:34:46.169Z,96617.65
2023-03-06T05:37:16.177Z,96622.60
2023-03-06T05:39:45.366Z,96620.67
2023-03-06T05:42:14.256Z,96624.14
2023-03-06T05:44:43.453Z,96629.42
2023-03-06T05:47:13.258Z,96628.67
2023-03-06T05:49:42.557Z,96626.09
2023-03-06T05:52:13.430Z,96628.09
2023-03-06T05:54:42.393Z,96627.77
2023-03-06T05:57:11.921Z,96634.20
2023-03-06T05:59:40.988Z,96639.95
2023-03-06T06:02:10.233Z,96637.30
2023-03-06T06:04:39.172Z,96637.17
2023-03-06T06:07:08.678Z,96635.27
2023-03-06T06:09:38.494Z,96637.11
2023-03-06T06:12:08.320Z,96638.95
2023-03-06T06:14:38.224Z,96640.92
2023-03-06T06:17:07.946Z,96644.23
2023-03-06T06:19:37.537Z,96648.85
2023-03-06T06:22:06.527Z,96649.05
2023-03-06T06:24:35.425Z,96646.00
2023-03-06T06:27:05.530Z,96646.93
2023-03-06T06:29:34.832Z,96647.60
2023-03-06T06:32:03.575Z,96649.50
2023-03-06T06:34:32.929Z,96647.77
2023-03-06T06:37:02.230Z,96650.48
2023-03-06T06:39:31.323Z,96652.36
2023-03-06T06:42:25.915Z,96652.66
2023-03-06T06:44:50.247Z,96657.23
2023-03-06T06:47:22.909Z,96656.05
2023-03-06T06:49:55.322Z,96656.54
2023-03-06T06:52:25.149Z,96659.48
2023-03-06T06:54:54.450Z,96662.73
2023-03-06T06:57:23.451Z,96667.64
2023-03-06T06:59:54.160Z,96666.26
2023-03-06T07:02:23.696Z,96664.89
2023-03-06T07:05:03.724Z,96668.54
2023-03-06T07:07:37.683Z,96665.27
2023-03-06T07:10:13.192Z,96668.94
2023-03-06T07:12:42.197Z,96669.40
2023-03-06T07:15:15.688Z,96674.23
2023-03-06T07:17:45.286Z,96676.00
2023-03-06T07:20:14.807Z,96681.17
2023-03-06T07:22:50.875Z,96685.12
2023-03-06T07:25:21.627Z,96689.71
2023-03-06T07:27:54.708Z,96691.10
2023-03-06T07:30:24.793Z,96691.17
2023-03-06T07:32:58.502Z,96691.10
2023-03-06T07:35:27.499Z,96688.61
2023-03-06T07:37:56.908Z,96695.34
2023-03-06T07:40:26.697Z,96703.91
2023-03-06T07:43:09.131Z,96701.90
2023-03-06T07:45:47.175Z,96704.77
2023-03-06T07:48:16.027Z,96709.92
2023-03-06T07:50:45.519Z,96708.77
2023-03-06T07:53:14.105Z,96707.34
2023-03-06T07:55:43.316Z,96710.55
2023-03-06T07:58:12.823Z,96713.18
2023-03-06T08:00:42.026Z,96706.69
2023-03-06T08:03:13.149Z,96710.34
2023-03-06T08:05:42.571Z,96711.55
2023-03-06T08:08:12.689Z,96709.77
2023-03-06T08:10:41.755Z,96708.48
2023-03-06T08:13:10.454Z,96707.73
2023-03-06T08:15:39.349Z,96707.95
2023-03-06T08:18:08.432Z,96710.80
2023-03-06T08:20:37.944Z,96715.20
2023-03-06T08:23:06.931Z,96714.82
2023-03-06T08:25:36.230Z,96711.14
2023-03-06T08:28:06.492Z,96710.06
2023-03-06T08:30:35.861Z,96707.49
2023-03-06T08:33:04.647Z,96707.02
2023-03-06T08:35:33.346Z,96707.48
2023-03-06T08:38:03.134Z,96708.89
2023-03-06T08:40:32.226Z,96714.55
2023-03-06T08:43:01.226Z,96717.25
2023-03-06T08:45:30.281Z,96711.63
2023-03-06T08:47:59.115Z,96706.27
2023-03-06T08:50:28.210Z,96706.69
2023-03-06T08:52:57.183Z,96711.33
2023-03-06T08:55:26.078Z,96715.88
2023-03-06T08:57:55.303Z,96714.73
2023-03-06T09:00:25.001Z,96711.23
2023-03-06T09:02:53.876Z,96709.70
2023-03-06T09:05:23.282Z,96710.86
2023-03-06T09:07:52.137Z,96709.06
2023-03-06T09:10:23.982Z,96706.80
2023-03-06T09:12:55.049Z,96706.75
2023-03-06T09:15:25.089Z,96712.47
2023-03-06T09:17:54.728Z,96714.80
2023-03-06T09:20:23.750Z,96712.07
2023-03-06T09:22:52.577Z,96714.48
2023-03-06T09:25:23.598Z,96721.75
2023-03-06T09:28:08.636Z,96721.16
2023-03-06T09:30:41.146Z,96721.15
2023-03-06T09:33:09.964Z,96719.89
2023-03-06T09:35:48.372Z,96719.70
2023-03-06T09:38:18.699Z,96727.98
2023-03-06T09:41:03.258Z,96727.00
2023-03-06T09:43:36.754Z,96727.98
2023-03-06T09:46:28.954Z,96718.39
2023-03-06T09:49:29.419Z,96717.77
2023-03-06T09:52:36.523Z,96721.98
2023-03-06T09:55:05.796Z,96723.27
2023-03-06T09:57:52.923Z,96725.41
2023-03-06T10:00:47.615Z,96728.58
2023-03-06T10:03:30.099Z,96733.06
2023-03-06T10:06:20.935Z,96732.32
2023-03-06T10:08:56.366Z,96732.05
2023-03-06T10:11:57.518Z,96730.17
2023-03-06T10:14:46.625Z,96729.84
2023-03-06T10:17:20.988Z,96726.40
2023-03-06T10:19:50.310Z,96727.56
2023-03-06T10:22:33.367Z,96720.20
2023-03-06T10:25:14.171Z,96716.67
2023-03-06T10:27:47.769Z,96714.05
2023-03-06T10:30:34.476Z,96705.86
2023-03-06T10:33:16.098Z,96702.34
2023-03-06T10:35:50.133Z,96705.52
2023-03-06T10:38:38.041Z,96701.27
2023-03-06T10:41:17.269Z,96702.70
2023-03-06T10:44:09.657Z,96698.25
2023-03-06T10:46:51.734Z,96691.80
2023-03-06T10:49:31.030Z,96696.89
2023-03-06T10:52:01.586Z,96692.95
2023-03-06T10:54:36.726Z,96682.48
2023-03-06T10:57:27.209Z,96682.95
2023-03-06T11:00:07.656Z,96670.78
2023-03-06T11:02:41.343Z,96666.68
2023-03-06T11:05:20.395Z,96660.06
2023-03-06T11:08:01.405Z,96666.83
2023-03-06T11:10:32.123Z,96657.25
2023-03-06T11:13:20.779Z,96652.77
2023-03-06T11:16:06.287Z,96658.11
2023-03-06T11:18:41.488Z,96652.41
2023-03-06T11:21:32.129Z,96648.80
2023-03-06T11:24:18.898Z,96651.81
2023-03-06T11:27:00.158Z,96650.17
2023-03-06T11:29:46.269Z,96651.40
2023-03-06T11:32:14.855Z,96652.23
2023-03-06T11:35:11.893Z,96651.48
2023-03-06T11:38:00.060Z,96645.46
2023-03-06T11:40:46.548Z,96640.00
2023-03-06T11:43:30.275Z,96634.73
2023-03-06T11:46:18.050Z,96636.90
2023-03-06T11:48:53.864Z,96636.08
2023-03-06T11:51:27.152Z,96639.89
2023-03-06T11:53:58.811Z,96641.61
2023-03-06T11:56:42.066Z,96637.85
2023-03-06T11:59:19.939Z,96628.39
2023-03-06T12:02:11.492Z,96625.30
2023-03-06T12:04:49.363Z,96624.98
2023-03-06T12:07:27.369Z,96624.64
2023-03-06T12:10:14.703Z,96617.64
2023-03-06T12:13:12.561Z,96621.17
2023-03-06T12:15:57.247Z,96621.97
2023-03-06T12:18:35.941Z,96614.50
2023-03-06T12:21:19.589Z,96610.91
2023-03-06T12:24:17.341Z,96615.73
2023-03-06T12:26:51.662Z,96611.81
2023-03-06T12:29:58.341Z,96608.13
2023-03-06T12:32:39.506Z,96603.80
2023-03-06T12:35:46.413Z,96610.10
2023-03-06T12:38:34.531Z,96611.88
2023-03-06T12:41:19.094Z,96604.83
2023-03-06T12:44:09.588Z,96600.52
2023-03-06T12:46:54.663Z,96594.34
2023-03-06T12:49:32.903Z,96589.62
2023-03-06T12:52:05.137Z,96585.34
2023-03-06T12:54:40.067Z,96583.23
2023-03-06T12:57:10.410Z,96580.40
2023-03-06T12:59:50.351Z,96581.56
2023-03-06T13:02:35.639Z,96571.34
2023-03-06T13:05:22.741Z,96567.93
2023-03-06T13:08:20.305Z,96571.06
2023-03-06T13:11:14.491Z,96568.61
2023-03-06T13:13:46.182Z,96570.58
2023-03-06T13:16:34.886Z,96564.31
2023-03-06T13:19:26.129Z,96564.63
2023-03-06T13:21:54.799Z,96558.79
2023-03-06T13:24:27.330Z,96555.39
2023-03-06T13:27:08.216Z,96546.20
2023-03-06T13:29:37.547Z,96546.79
2023-03-06T13:32:16.704Z,96546.05
2023-03-06T13:34:48.780Z,96539.77
2023-03-06T13:37:17.936Z,96542.10
2023-03-06T13:39:55.641Z,96541.02
2023-03-06T13:42:32.114Z,96536.53
2023-03-06T13:45:26.099Z,96530.90
2023-03-06T13:48:24.479Z,96528.11
2023-03-06T13:50:49.845Z,96527.65
2023-03-06T13:53:36.988Z,96527.02
2023-03-06T13:56:12.324Z,96524.09
2023-03-06T13:58:53.127Z,96524.46
2023-03-06T14:01:36.956Z,96520.75
2023-03-06T14:04:14.740Z,96517.19
2023-03-06T14:06:53.025Z,96516.31
2023-03-06T14:09:32.989Z,96519.41
2023-03-06T14:12:08.146Z,96519.91
2023-03-06T14:14:44.082Z,96523.78
2023-03-06T14:17:23.938Z,96519.36
2023-03-06T14:19:53.539Z,96516.81
2023-03-06T14:22:25.196Z,96513.52
2023-03-06T14:25:03.192Z,96511.41
2023-03-06T14:27:52.022Z,96511.33
2023-03-06T14:30:25.390Z,96507.65
2023-03-06T14:32:55.687Z,96513.23
2023-03-06T14:35:34.838Z,96503.83
2023-03-06T14:38:06.758Z,96501.04
2023-03-06T14:40:41.292Z,96506.86
2023-03-06T14:43:24.130Z,96507.02
2023-03-06T14:46:01.302Z,96506.11
2023-03-06T14:48:44.725Z,96509.89
2023-03-06T14:51:21.308Z,96506.79
2023-03-06T14:53:52.239Z,96507.34
2023-03-06T14:56:26.489Z,96507.63
2023-03-06T14:59:06.517Z,96500.88
2023-03-06T15:01:41.241Z,96502.67
2023-03-06T15:04:29.299Z,96500.41
2023-03-06T15:06:59.430Z,96502.80
2023-03-06T15:09:33.463Z,96503.04
2023-03-06T15:12:30.045Z,96497.64
2023-03-06T15:15:10.712Z,96497.02
2023-03-06T15:17:42.674Z,96495.04
2023-03-06T15:20:36.129Z,96495.36
2023-03-06T15:23:16.389Z,96493.15
2023-03-06T15:25:55.934Z,96487.67
2023-03-06T15:28:38.968Z,96480.45
2023-03-06T15:31:22.029Z,96479.41
2023-03-06T15:34:25.579Z,96482.68
2023-03-06T15:36:56.757Z,96483.00
2023-03-06T15:39:37.321Z,96482.21
2023-03-06T15:42:15.620Z,96486.50
2023-03-06T15:44:49.505Z,96479.57
2023-03-06T15:47:18.592Z,96484.08
2023-03-06T15:49:52.205Z,96482.93
2023-03-06T15:52:22.292Z,96481.91
2023-03-06T15:54:51.111Z,96485.29
2023-03-06T15:57:24.514Z,96482.59
2023-03-06T15:59:54.660Z,96477.98
2023-03-06T16:02:24.859Z,96475.52
2023-03-06T16:04:53.901Z,96475.14
2023-03-06T16:07:22.534Z,96477.45
2023-03-06T16:09:51.823Z,96478.52
2023-03-06T16:12:22.468Z,96480.98
2023-03-06T16:14:50.964Z,96485.52
2023-03-06T16:17:19.627Z,96486.10
2023-03-06T16:19:48.276Z,96483.89
2023-03-06T16:22:17.091Z,96480.94
2023-03-06T16:24:47.113Z,96484.05
2023-03-06T16:27:23.574Z,96486.94
2023-03-06T16:29:53.494Z,96489.75
2023-03-06T16:32:28.355Z,96491.98
2023-03-06T16:34:57.524Z,96490.15
2023-03-06T16:37:26.208Z,96489.61
2023-03-06T16:39:54.888Z,96493.76
2023-03-06T16:42:23.777Z,96488.16
2023-03-06T16:44:53.586Z,96490.09
2023-03-06T16:47:22.994Z,96490.99
2023-03-06T16:49:56.212Z,96491.55
2023-03-06T16:52:24.867Z,96496.02
2023-03-06T16:54:54.475Z,96497.08
2023-03-06T16:57:23.060Z,96496.35
2023-03-06T16:59:51.844Z,96493.93
2023-03-06T17:02:20.563Z,96492.77
2023-03-06T17:04:49.444Z,96492.28
2023-03-06T17:07:18.108Z,96492.59
2023-03-06T17:09:46.892Z,96493.93
2023-03-06T17:12:15.579Z,96492.52
2023-03-06T17:14:44.174Z,96488.80
2023-03-06T17:17:12.815Z,96485.69
2023-03-06T17:19:41.636Z,96487.75
2023-03-06T17:22:10.241Z,96483.23
2023-03-06T17:24:40.749Z,96481.86
2023-03-06T17:27:09.846Z,96483.06
2023-03-06T17:29:38.733Z,96478.02
2023-03-06T17:32:07.757Z,96480.52
2023-03-06T17:34:36.426Z,96480.56
2023-03-06T17:37:05.654Z,96482.57
2023-03-06T17:39:36.987Z,96485.30
2023-03-06T17:42:06.846Z,96478.73
2023-03-06T17:44:36.175Z,96478.96
2023-03-06T17:47:05.473Z,96474.70
2023-03-06T17:49:34.174Z,96473.46
2023-03-06T17:52:05.332Z,96473.39
2023-03-06T17:54:34.703Z,96470.61
2023-03-06T17:57:05.548Z,96472.81
2023-03-06T17:59:34.780Z,96473.95
2023-03-06T18:02:03.788Z,96472.08
2023-03-06T18:04:32.659Z,96468.77
2023-03-06T18:07:01.507Z,96465.17
2023-03-06T18:09:30.276Z,96462.78
2023-03-06T18:11:59.802Z,96465.73
2023-03-06T18:14:28.482Z,96465.19
2023-03-06T18:16:57.479Z,96468.42
2023-03-06T18:19:26.060Z,96465.48
2023-03-06T18:21:54.953Z,96465.59
2023-03-06T18:24:23.842Z,96463.64
2023-03-06T18:26:52.735Z,96457.77
2023-03-06T18:29:21.319Z,96451.31
2023-03-06T18:31:50.759Z,96450.77
2023-03-06T18:34:19.300Z,96448.55
2023-03-06T18:36:48.604Z,96444.09
2023-03-06T18:39:17.492Z,96444.55
2023-03-06T18:41:45.973Z,96446.80
2023-03-06T18:44:16.573Z,96444.29
2023-03-06T18:46:45.520Z,96437.27
2023-03-06T18:49:15.511Z,96438.09
2023-03-06T18:51:44.004Z,96437.33
2023-03-06T18:54:14.011Z,96439.64
2023-03-06T18:56:44.460Z,96437.27
2023-03-06T18:59:18.526Z,96439.86
2023-03-06T19:01:49.587Z,96439.57
2023-03-06T19:04:18.217Z,96437.52
2023-03-06T19:06:46.863Z,96440.35
2023-03-06T19:09:15.549Z,96432.79
2023-03-06T19:11:47.103Z,96432.52
2023-03-06T19:14:16.619Z,96433.98
2023-03-06T19:16:45.217Z,96430.35
2023-03-06T19:19:13.877Z,96433.37
2023-03-06T19:21:42.560Z,96434.35
2023-03-06T19:24:14.530Z,96429.13
2023-03-06T19:26:43.525Z,96428.98
2023-03-06T19:29:12.102Z,96424.90
2023-03-06T19:31:41.670Z,96420.19
2023-03-06T19:34:10.806Z,96417.73
2023-03-06T19:36:41.045Z,96421.30
2023-03-06T19:39:11.145Z,96420.32
2023-03-06T19:41:39.620Z,96418.72
2023-03-06T19:44:08.207Z,96416.00
2023-03-06T19:46:37.006Z,96416.79
2023-03-06T19:49:12.032Z,96415.73
2023-03-06T19:51:40.511Z,96417.23
2023-03-06T19:54:14.420Z,96419.40
2023-03-06T19:56:43.017Z,96417.02
2023-03-06T19:59:11.694Z,96412.60
2023-03-06T20:01:40.874Z,96414.47
2023-03-06T20:04:09.631Z,96414.09
2023-03-06T20:06:39.288Z,96415.80
2023-03-06T20:09:09.401Z,96416.56
2023-03-06T20:11:38.930Z,96421.66
2023-03-06T20:14:09.260Z,96419.92
2023-03-06T20:16:38.428Z,96420.91
2023-03-06T20:19:08.960Z,96418.75
2023-03-06T20:21:38.760Z,96417.19
2023-03-06T20:24:09.019Z,96415.37
2023-03-06T20:26:38.790Z,96424.98
2023-03-06T20:29:07.632Z,96424.81
2023-03-06T20:31:36.985Z,96413.48
2023-03-06T20:34:05.764Z,96408.53
2023-03-06T20:36:39.519Z,96409.02
2023-03-06T20:39:12.166Z,96411.29
2023-03-06T20:41:41.347Z,96404.39
2023-03-06T20:44:14.119Z,96403.27
2023-03-06T20:46:43.061Z,96399.70
2023-03-06T20:49:13.279Z,96398.27
2023-03-06T20:51:42.659Z,96400.92
2023-03-06T20:54:13.806Z,96400.09
2023-03-06T20:56:46.280Z,96395.60
2023-03-06T20:59:15.976Z,96392.39
2023-03-06T21:01:46.399Z,96393.86
2023-03-06T21:04:16.126Z,96393.95
2023-03-06T21:06:47.134Z,96391.38
2023-03-06T21:09:17.645Z,96391.77
2023-03-06T21:11:46.378Z,96384.32
2023-03-06T21:14:15.932Z,96377.90
2023-03-06T21:16:45.474Z,96375.32
2023-03-06T21:19:14.472Z,96372.54
2023-03-06T21:21:43.257Z,96368.77
2023-03-06T21:24:12.263Z,96365.22
2023-03-06T21:26:41.046Z,96365.14
2023-03-06T21:29:10.237Z,96364.61
2023-03-06T21:31:39.310Z,96358.81
2023-03-06T21:34:08.528Z,96358.50
2023-03-06T21:36:37.423Z,96358.11
2023-03-06T21:39:06.574Z,96357.50
2023-03-06T21:41:35.319Z,96356.71
2023-03-06T21:44:06.293Z,96355.48
2023-03-06T21:46:36.225Z,96356.36
2023-03-06T21:49:05.984Z,96348.59
2023-03-06T21:51:35.998Z,96347.44
2023-03-06T21:54:06.829Z,96345.95
2023-03-06T21:56:36.036Z,96346.09
2023-03-06T21:59:04.714Z,96343.14
2023-03-06T22:01:33.494Z,96339.73
2023-03-06T22:04:02.581Z,96337.66
2023-03-06T22:06:32.443Z,96339.83
2023-03-06T22:09:02.026Z,96341.53
2023-03-06T22:11:31.815Z,96342.58
2023-03-06T22:14:01.543Z,96337.02
2023-03-06T22:16:32.034Z,96338.40
2023-03-06T22:19:01.857Z,96333.64
2023-03-06T22:21:31.822Z,96336.58
2023-03-06T22:24:00.690Z,96335.73
2023-03-06T22:26:31.479Z,96335.05
2023-03-06T22:29:00.720Z,96335.48
2023-03-06T22:31:29.848Z,96328.94
2023-03-06T22:34:01.189Z,96326.13
2023-03-06T22:36:31.397Z,96334.20
2023-03-06T22:39:02.307Z,96342.95
2023-03-06T22:41:31.553Z,96350.95
2023-03-06T22:44:02.348Z,96351.98
2023-03-06T22:46:32.961Z,96348.59
2023-03-06T22:49:03.311Z,96352.35
2023-03-06T22:51:32.614Z,96346.23
2023-03-06T22:54:02.119Z,96335.98
2023-03-06T22:56:31.834Z,96336.76
2023-03-06T22:59:01.278Z,96337.09
2023-03-06T23:01:33.987Z,96336.55
2023-03-06T23:04:05.462Z,96337.06
2023-03-06T23:06:37.368Z,96339.64
2023-03-06T23:09:15.116Z,96347.86
2023-03-06T23:12:04.424Z,96351.88
2023-03-06T23:14:52.376Z,96341.85
2023-03-06T23:17:42.096Z,96331.86
2023-03-06T23:20:30.036Z,96336.45
2023-03-06T23:23:19.034Z,96347.06
2023-03-06T23:25:49.322Z,96349.54
2023-03-06T23:28:20.848Z,96345.86
2023-03-06T23:30:50.090Z,96350.02
2023-03-06T23:33:19.410Z,96351.33
2023-03-06T23:35:50.637Z,96356.77
2023-03-06T23:38:21.883Z,96362.05
2023-03-06T23:40:51.877Z,96368.34
2023-03-06T23:43:20.923Z,96363.88
2023-03-06T23:45:55.255Z,96359.42
2023-03-06T23:48:25.203Z,96359.34
2023-03-06T23:50:54.498Z,96355.64
2023-03-06T23:53:24.779Z,96358.86
2023-03-06T23:55:54.873Z,96360.97
2023-03-06T23:58:26.226Z,96366.23
